Time,TemperatureF,DewpointF,PressureIn,WindDirection,WindDirectionDegrees,WindSpeedMPH,WindSpeedGustMPH,Humidity,HourlyPrecipIn,Conditions,Clouds,dailyrainin,SoftwareType,DateUTC
2013-02-24 00:11:00,44.4,38.0,29.99,NW,326,1.0,4.0,77,0.00,,,0.07,weatherlink.com 1.10,2013-02-24 05:11:00,
2013-02-24 00:26:00,43.9,37.0,30.00,NE,53,1.0,7.0,76,0.00,,,0.00,weatherlink.com 1.10,2013-02-24 05:26:00,
2013-02-24 00:41:00,43.3,36.0,29.99,NNW,329,0.0,5.0,76,0.00,,,0.00,weatherlink.com 1.10,2013-02-24 05:41:00,
2013-02-24 00:56:00,42.9,36.0,29.99,NNW,341,3.0,7.0,75,0.00,,,0.00,weatherlink.com 1.10,2013-02-24 05:56:00,
2013-02-24 01:11:00,42.4,35.0,30.00,North,6,6.0,6.0,75,0.00,,,0.00,weatherlink.com 1.10,2013-02-24 06:11:00,
2013-02-24 01:26:00,42.1,34.0,30.01,NE,41,3.0,7.0,73,0.00,,,0.00,weatherlink.com 1.10,2013-02-24 06:26:00,
2013-02-24 01:41:00,41.5,34.0,30.01,North,358,2.0,5.0,74,0.00,,,0.00,weatherlink.com 1.10,2013-02-24 06:41:00,
2013-02-24 01:56:00,41.1,32.0,30.01,North,350,6.0,10.0,71,0.00,,,0.00,weatherlink.com 1.10,2013-02-24 06:56:00,
2013-02-24 02:11:00,40.6,31.0,30.01,NNW,334,5.0,8.0,68,0.00,,,0.00,weatherlink.com 1.10,2013-02-24 07:11:00,
2013-02-24 02:26:00,40.1,31.0,30.01,East,94,0.0,6.0,70,0.00,,,0.00,weatherlink.com 1.10,2013-02-24 07:26:00,
2013-02-24 02:41:00,40.1,30.0,30.01,SSE,152,1.0,8.0,67,0.00,,,0.00,weatherlink.com 1.10,2013-02-24 07:41:00,
2013-02-24 02:57:00,39.6,30.0,30.02,NNW,338,1.0,4.0,68,0.00,,,0.00,weatherlink.com 1.10,2013-02-24 07:57:00,
2013-02-24 03:12:00,39.3,29.0,30.02,NNW,347,4.0,6.0,66,0.00,,,0.00,weatherlink.com 1.10,2013-02-24 08:12:00,
2013-02-24 03:27:00,38.8,29.0,30.02,NNW,348,1.0,4.0,68,0.00,,,0.00,weatherlink.com 1.10,2013-02-24 08:27:00,
2013-02-24 03:42:00,38.7,29.0,30.02,NW,309,1.0,7.0,68,0.00,,,0.00,weatherlink.com 1.10,2013-02-24 08:42:00,
2013-02-24 03:57:00,38.3,29.0,30.02,NNE,26,3.0,6.0,68,0.00,,,0.00,weatherlink.com 1.10,2013-02-24 08:57:00,
2013-02-24 04:12:00,37.9,28.0,30.01,NNW,345,3.0,5.0,67,0.00,,,0.00,weatherlink.com 1.10,2013-02-24 09:12:00,
2013-02-24 04:27:00,37.8,27.0,30.02,NNW,337,7.0,8.0,66,0.00,,,0.00,weatherlink.com 1.10,2013-02-24 09:27:00,
2013-02-24 04:42:00,37.7,27.0,30.02,NNW,339,5.0,10.0,66,0.00,,,0.00,weatherlink.com 1.10,2013-02-24 09:42:00,
2013-02-24 04:57:00,37.5,27.0,30.03,NNW,347,8.0,9.0,67,0.00,,,0.00,weatherlink.com 1.10,2013-02-24 09:57:00,
2013-02-24 05:12:00,37.0,27.0,30.04,North,353,1.0,11.0,68,0.00,,,0.00,weatherlink.com 1.10,2013-02-24 10:12:00,
2013-02-24 05:27:00,36.9,27.0,30.05,North,2,2.0,10.0,67,0.00,,,0.00,weatherlink.com 1.10,2013-02-24 10:27:00,
2013-02-24 05:42:00,36.5,27.0,30.05,NNW,334,5.0,9.0,68,0.00,,,0.00,weatherlink.com 1.10,2013-02-24 10:42:00,
2013-02-24 05:57:00,36.3,27.0,30.06,North,352,5.0,11.0,68,0.00,,,0.00,weatherlink.com 1.10,2013-02-24 10:57:00,
2013-02-24 06:12:00,36.1,26.0,30.07,North,357,5.0,10.0,68,0.00,,,0.00,weatherlink.com 1.10,2013-02-24 11:12:00,
2013-02-24 06:27:00,36.1,26.0,30.07,NE,53,2.0,8.0,68,0.00,,,0.00,weatherlink.com 1.10,2013-02-24 11:27:00,
2013-02-24 06:42:00,35.9,27.0,30.08,NNW,338,5.0,10.0,69,0.00,,,0.00,weatherlink.com 1.10,2013-02-24 11:42:00,
2013-02-24 06:57:00,35.7,26.0,30.08,NNW,336,2.0,8.0,69,0.00,,,0.00,weatherlink.com 1.10,2013-02-24 11:57:00,
2013-02-24 07:12:00,36.0,26.0,30.10,NNW,347,1.0,4.0,67,0.00,,,0.00,weatherlink.com 1.10,2013-02-24 12:12:00,
2013-02-24 07:27:00,35.9,26.0,30.10,NNW,332,2.0,6.0,67,0.00,,,0.00,weatherlink.com 1.10,2013-02-24 12:27:00,
2013-02-24 07:42:00,36.4,26.0,30.11,NNW,345,0.0,5.0,66,0.00,,,0.00,weatherlink.com 1.10,2013-02-24 12:42:00,
2013-02-24 07:57:00,37.1,26.0,30.11,NE,51,0.0,3.0,64,0.00,,,0.00,weatherlink.com 1.10,2013-02-24 12:57:00,
2013-02-24 08:12:00,38.2,26.0,30.12,NE,46,4.0,4.0,62,0.00,,,0.00,weatherlink.com 1.10,2013-02-24 13:12:00,
2013-02-24 08:27:00,40.1,26.0,30.12,ENE,65,1.0,3.0,58,0.00,,,0.00,weatherlink.com 1.10,2013-02-24 13:27:00,
2013-02-24 08:42:00,39.8,26.0,30.12,NE,50,2.0,2.0,58,0.00,,,0.00,weatherlink.com 1.10,2013-02-24 13:42:00,
2013-02-24 08:58:00,41.2,26.0,30.13,NW,318,0.0,3.0,55,0.00,,,0.00,weatherlink.com 1.10,2013-02-24 13:58:00,
2013-02-24 09:13:00,41.0,25.0,30.14,North,350,1.0,6.0,54,0.00,,,0.00,weatherlink.com 1.10,2013-02-24 14:13:00,
2013-02-24 09:28:00,41.2,24.0,30.14,NNW,342,3.0,8.0,50,0.00,,,0.00,weatherlink.com 1.10,2013-02-24 14:28:00,
2013-02-24 09:43:00,41.5,24.0,30.15,North,354,0.0,7.0,51,0.00,,,0.00,weatherlink.com 1.10,2013-02-24 14:43:00,
2013-02-24 09:58:00,42.9,25.0,30.14,North,349,1.0,5.0,49,0.00,,,0.00,weatherlink.com 1.10,2013-02-24 14:58:00,
2013-02-24 10:13:00,43.7,25.0,30.14,NNE,32,1.0,5.0,49,0.00,,,0.00,weatherlink.com 1.10,2013-02-24 15:13:00,
2013-02-24 10:28:00,44.8,25.0,30.14,NNW,346,0.0,3.0,47,0.00,,,0.00,weatherlink.com 1.10,2013-02-24 15:28:00,
2013-02-24 10:43:00,44.1,25.0,30.14,NE,56,1.0,5.0,47,0.00,,,0.00,weatherlink.com 1.10,2013-02-24 15:43:00,
2013-02-24 10:58:00,45.6,25.0,30.15,North,356,3.0,4.0,45,0.00,,,0.00,weatherlink.com 1.10,2013-02-24 15:58:00,
2013-02-24 11:13:00,46.6,24.0,30.14,NNE,19,0.0,5.0,42,0.00,,,0.00,weatherlink.com 1.10,2013-02-24 16:13:00,
2013-02-24 11:28:00,47.4,25.0,30.15,East,83,4.0,5.0,41,0.00,,,0.00,weatherlink.com 1.10,2013-02-24 16:28:00,
2013-02-24 11:43:00,49.5,26.0,30.15,WNW,302,2.0,5.0,41,0.00,,,0.00,weatherlink.com 1.10,2013-02-24 16:43:00,
2013-02-24 11:58:00,50.5,26.0,30.15,ESE,113,1.0,7.0,39,0.00,,,0.00,weatherlink.com 1.10,2013-02-24 16:58:00,
2013-02-24 12:13:00,50.5,24.0,30.14,NNW,336,0.0,7.0,36,0.00,,,0.00,weatherlink.com 1.10,2013-02-24 17:13:00,
2013-02-24 12:28:00,49.5,24.0,30.14,WNW,289,4.0,7.0,37,0.00,,,0.00,weatherlink.com 1.10,2013-02-24 17:28:00,
2013-02-24 12:43:00,48.8,23.0,30.14,NNW,334,2.0,10.0,36,0.00,,,0.00,weatherlink.com 1.10,2013-02-24 17:43:00,
2013-02-24 12:58:00,51.0,24.0,30.14,East,91,2.0,8.0,35,0.00,,,0.00,weatherlink.com 1.10,2013-02-24 17:58:00,
2013-02-24 13:13:00,51.8,24.0,30.13,NNE,33,1.0,4.0,34,0.00,,,0.00,weatherlink.com 1.10,2013-02-24 18:13:00,
2013-02-24 13:28:00,52.8,26.0,30.12,East,95,5.0,5.0,35,0.00,,,0.00,weatherlink.com 1.10,2013-02-24 18:28:00,
2013-02-24 13:43:00,52.9,24.0,30.12,NNE,15,3.0,9.0,33,0.00,,,0.00,weatherlink.com 1.10,2013-02-24 18:43:00,
2013-02-24 13:58:00,51.5,26.0,30.12,SW,232,1.0,9.0,38,0.00,,,0.00,weatherlink.com 1.10,2013-02-24 18:58:00,
2013-02-24 14:13:00,52.5,24.0,30.12,North,356,1.0,7.0,33,0.00,,,0.00,weatherlink.com 1.10,2013-02-24 19:13:00,
2013-02-24 14:28:00,53.7,26.0,30.11,NNW,328,5.0,8.0,34,0.00,,,0.00,weatherlink.com 1.10,2013-02-24 19:28:00,
2013-02-24 14:43:00,53.4,23.0,30.11,NW,311,3.0,6.0,31,0.00,,,0.00,weatherlink.com 1.10,2013-02-24 19:43:00,
2013-02-24 14:58:00,53.7,24.0,30.11,East,84,0.0,5.0,32,0.00,,,0.00,weatherlink.com 1.10,2013-02-24 19:58:00,
2013-02-24 15:13:00,54.1,25.0,30.10,NE,41,3.0,8.0,33,0.00,,,0.00,weatherlink.com 1.10,2013-02-24 20:13:00,
2013-02-24 15:28:00,54.3,23.0,30.10,NNW,340,1.0,6.0,30,0.00,,,0.00,weatherlink.com 1.10,2013-02-24 20:28:00,
2013-02-24 15:43:00,54.8,24.0,30.10,NW,326,5.0,6.0,30,0.00,,,0.00,weatherlink.com 1.10,2013-02-24 20:43:00,
2013-02-24 15:58:00,56.1,23.0,30.10,West,263,4.0,6.0,28,0.00,,,0.00,weatherlink.com 1.10,2013-02-24 20:58:00,
2013-02-24 16:13:00,55.8,23.0,30.10,NNW,337,3.0,6.0,28,0.00,,,0.00,weatherlink.com 1.10,2013-02-24 21:13:00,
2013-02-24 16:28:00,55.9,24.0,30.10,ENE,57,1.0,8.0,29,0.00,,,0.00,weatherlink.com 1.10,2013-02-24 21:28:00,
2013-02-24 16:43:00,55.3,23.0,30.10,East,89,4.0,6.0,28,0.00,,,0.00,weatherlink.com 1.10,2013-02-24 21:43:00,
2013-02-24 16:58:00,54.6,23.0,30.10,NNE,20,5.0,7.0,29,0.00,,,0.00,weatherlink.com 1.10,2013-02-24 21:58:00,
2013-02-24 17:13:00,54.6,24.0,30.10,NNE,26,4.0,6.0,30,0.00,,,0.00,weatherlink.com 1.10,2013-02-24 22:13:00,
2013-02-24 17:28:00,53.2,23.0,30.10,NNW,333,4.0,11.0,31,0.00,,,0.00,weatherlink.com 1.10,2013-02-24 22:28:00,
2013-02-24 17:43:00,52.9,23.0,30.10,North,6,4.0,8.0,31,0.00,,,0.00,weatherlink.com 1.10,2013-02-24 22:43:00,
2013-02-24 17:58:00,52.1,24.0,30.11,NE,55,0.0,8.0,33,0.00,,,0.00,weatherlink.com 1.10,2013-02-24 22:58:00,
2013-02-24 18:13:00,51.3,22.0,30.11,NNE,18,3.0,6.0,32,0.00,,,0.00,weatherlink.com 1.10,2013-02-24 23:13:00,
2013-02-24 18:28:00,49.9,22.0,30.12,NW,326,2.0,9.0,34,0.00,,,0.00,weatherlink.com 1.10,2013-02-24 23:28:00,
2013-02-24 18:43:00,49.0,22.0,30.12,North,356,3.0,8.0,34,0.00,,,0.00,weatherlink.com 1.10,2013-02-24 23:43:00,
2013-02-24 18:58:00,48.4,22.0,30.13,North,1,7.0,9.0,35,0.00,,,0.00,weatherlink.com 1.10,2013-02-24 23:58:00,
2013-02-24 19:13:00,48.1,21.0,30.14,NNE,13,3.0,6.0,35,0.00,,,0.00,weatherlink.com 1.10,2013-02-25 00:13:00,
2013-02-24 19:28:00,47.7,22.0,30.14,NNE,15,4.0,7.0,36,0.00,,,0.00,weatherlink.com 1.10,2013-02-25 00:28:00,
2013-02-24 19:43:00,47.2,22.0,30.15,North,352,4.0,4.0,37,0.00,,,0.00,weatherlink.com 1.10,2013-02-25 00:43:00,
2013-02-24 19:58:00,46.7,21.0,30.14,North,2,6.0,7.0,37,0.00,,,0.00,weatherlink.com 1.10,2013-02-25 00:58:00,
2013-02-24 20:13:00,46.5,21.0,30.14,North,11,4.0,8.0,36,0.00,,,0.00,weatherlink.com 1.10,2013-02-25 01:13:00,
2013-02-24 20:28:00,46.2,21.0,30.14,NNE,27,3.0,6.0,37,0.00,,,0.00,weatherlink.com 1.10,2013-02-25 01:28:00,
2013-02-24 20:43:00,45.4,21.0,30.14,NNE,27,2.0,5.0,38,0.00,,,0.00,weatherlink.com 1.10,2013-02-25 01:43:00,
2013-02-24 20:58:00,44.8,22.0,30.14,North,356,3.0,4.0,40,0.00,,,0.00,weatherlink.com 1.10,2013-02-25 01:58:00,
2013-02-24 21:13:00,44.6,21.0,30.14,NE,51,3.0,7.0,40,0.00,,,0.00,weatherlink.com 1.10,2013-02-25 02:13:00,
2013-02-24 21:28:00,43.9,21.0,30.14,NNW,337,2.0,5.0,41,0.00,,,0.00,weatherlink.com 1.10,2013-02-25 02:28:00,
2013-02-24 21:43:00,43.3,21.0,30.14,North,353,3.0,9.0,42,0.00,,,0.00,weatherlink.com 1.10,2013-02-25 02:43:00,
2013-02-24 21:58:00,43.7,21.0,30.14,NNW,335,5.0,10.0,41,0.00,,,0.00,weatherlink.com 1.10,2013-02-25 02:58:00,
2013-02-24 22:13:00,43.3,21.0,30.14,NNE,31,9.0,14.0,42,0.00,,,0.00,weatherlink.com 1.10,2013-02-25 03:13:00,
2013-02-24 22:28:00,43.4,21.0,30.14,North,358,4.0,9.0,41,0.00,,,0.00,weatherlink.com 1.10,2013-02-25 03:28:00,
2013-02-24 22:43:00,42.8,21.0,30.14,North,349,2.0,8.0,42,0.00,,,0.00,weatherlink.com 1.10,2013-02-25 03:43:00,
2013-02-24 22:58:00,42.8,22.0,30.13,ENE,61,4.0,5.0,43,0.00,,,0.00,weatherlink.com 1.10,2013-02-25 03:58:00,
2013-02-24 23:14:00,42.9,21.0,30.12,NNE,13,1.0,4.0,42,0.00,,,0.00,weatherlink.com 1.10,2013-02-25 04:14:00,
2013-02-24 23:29:00,42.1,21.0,30.12,NNE,32,2.0,5.0,43,0.00,,,0.00,weatherlink.com 1.10,2013-02-25 04:29:00,
2013-02-24 23:44:00,41.5,21.0,30.12,North,8,3.0,4.0,45,0.00,,,0.00,weatherlink.com 1.10,2013-02-25 04:44:00,
2013-02-24 23:59:00,41.0,21.0,30.11,NNE,31,1.0,5.0,45,0.00,,,0.00,weatherlink.com 1.10,2013-02-25 04:59:00,